Catlettsburg, KY (41129)

07:42 AM EST on Δεκέμβριος 22, 2014 (GMT -0500)
Kenova | Change Station
CLOSE
Current Station
Personal Weather Stations
Location: Kenova, WV
Elevation: 554 ft
Nearby Weather Stations

Elev 554 ft 38.40 °N, 82.57 °W | Updated 6 minutes ago

Νεφοσκεπής
Νεφοσκεπής
34.9 ° F
Feels Like 35 ° F
N
1.6
Ανεμος Μεταβλητός Ανεμος from ΔΒΔ

Σήμερα
High -- | Low -- ° F
--% Chance of Precip.
Yesterday
High -- | Low -- ° F
Precip. -- in
7:44 AM 5:13 PM
Νέα Σελήνη, 0% visible
Ατμοσφαιρική Πίεση 30.05 in
Ορατότητα 10.0 Μίλια
Σύννεφα Νεφοσκεπής 5500 ft
Δείκτης Ψυχρότητας 35 ° F
Σημείο Δρόσου 32 ° F
Υγρασία 89%
Rainfall 0.00 in
Snow Depth Not available.
Υπεριώδης ακτινοβολία (UV) 0 out of 12
Pollen .10 out of 12
Air Quality Not available.
Flu Activity Not available.
METAR KHTS 221151Z AUTO 00000KT 10SM OVC055 03/00 A3004 RMK AO2 SLP176 T00330000 10033 21022 55005 TSNO

More Conditions Fewer Conditions

Ατμοσφαιρική Πίεση 30.05 in
Ορατότητα 10.0 Μίλια
Σύννεφα Νεφοσκεπής 5500 ft
Δείκτης Ψυχρότητας 35 ° F
Σημείο Δρόσου 32 ° F
Υγρασία 89%
Rainfall 0.00 in
Snow Depth Not available.
Υπεριώδης ακτινοβολία (UV) 0 out of 12
Pollen .10 out of 12
Air Quality Not available.
Flu Activity Not available.
METAR KHTS 221151Z AUTO 00000KT 10SM OVC055 03/00 A3004 RMK AO2 SLP176 T00330000 10033 21022 55005 TSNO

More Conditions Fewer Conditions

10-Day Weather Forecast

Almanac

Αστρονομία

Dec. 22, 2014 Rise Set
Actual Time
Civil Twilight
Nautical Twilight
Astronomical Twilight
Moon
Length Of Visible Light
Διάρκεια ημέρας
Tomorrow will be .
, % of the Moon is Illuminated

Today's Extremes

State Highs State Lows

Community

WunderPhotos

Upload Photos

1,779,598 photos uploaded!

WunderBlogs® & News

Nearby

Air Quality

  Air Quality AQ Index Pollutant
Not available.

Snow Depth

Station Depth Elevation

Earthquake Activity

City Distance Mag. Time & Date
Minimum magnitude displayed is 2.5.

Coastal Water Temperatures

Τοποθεσία Θερμοκρασία

Nearby Weather Stations